createdAt,value
2023-12-24T00:01:50.954Z,0.80
2023-12-24T00:04:18.624Z,0.80
2023-12-24T00:06:46.363Z,0.80
2023-12-24T00:09:13.949Z,0.80
2023-12-24T00:11:41.582Z,0.70
2023-12-24T00:14:09.158Z,0.70
2023-12-24T00:16:43.061Z,0.70
2023-12-24T00:19:10.793Z,0.70
2023-12-24T00:21:38.412Z,0.60
2023-12-24T00:24:07.491Z,0.60
2023-12-24T00:26:36.172Z,0.50
2023-12-24T00:29:03.987Z,0.50
2023-12-24T00:31:31.632Z,0.50
2023-12-24T00:33:59.207Z,0.40
2023-12-24T00:36:26.842Z,0.40
2023-12-24T00:38:54.421Z,0.30
2023-12-24T00:41:22.021Z,0.30
2023-12-24T00:43:49.619Z,0.20
2023-12-24T00:46:17.866Z,0.20
2023-12-24T00:48:46.461Z,0.20
2023-12-24T00:51:14.213Z,0.20
2023-12-24T00:53:41.899Z,0.20
2023-12-24T00:56:09.598Z,0.10
2023-12-24T00:58:38.340Z,0.10
2023-12-24T01:01:06.078Z,0.10
2023-12-24T01:03:33.792Z,0.10
2023-12-24T01:06:01.665Z,0.10
2023-12-24T01:08:29.346Z,0.10
2023-12-24T01:10:57.005Z,0.10
2023-12-24T01:13:24.589Z,0.10
2023-12-24T01:15:52.194Z,0.10
2023-12-24T01:18:19.897Z,0.10
2023-12-24T01:20:47.644Z,0.10
2023-12-24T01:23:15.280Z,0.10
2023-12-24T01:25:43.081Z,0.10
2023-12-24T01:28:11.974Z,0.10
2023-12-24T01:30:39.667Z,0.10
2023-12-24T01:33:07.379Z,0.10
2023-12-24T01:35:35.117Z,0.00
2023-12-24T01:38:02.732Z,0.00
2023-12-24T01:40:30.285Z,0.00
2023-12-24T01:42:58.010Z,0.00
2023-12-24T01:45:25.933Z,0.00
2023-12-24T01:47:53.905Z,0.00
2023-12-24T01:50:22.276Z,0.00
2023-12-24T01:52:50.871Z,0.00
2023-12-24T01:55:18.973Z,0.00
2023-12-24T01:57:46.603Z,0.00
2023-12-24T02:00:15.334Z,0.00
2023-12-24T02:02:44.095Z,0.00
2023-12-24T02:05:11.799Z,0.00
2023-12-24T02:07:40.878Z,0.00
2023-12-24T02:10:09.890Z,0.00
2023-12-24T02:12:38.330Z,0.00
2023-12-24T02:15:06.779Z,0.00
2023-12-24T02:17:35.928Z,0.00
2023-12-24T02:20:03.867Z,0.00
2023-12-24T02:22:31.497Z,0.00
2023-12-24T02:24:59.316Z,0.00
2023-12-24T02:28:02.120Z,0.00
2023-12-24T02:30:36.384Z,0.00
2023-12-24T02:33:08.267Z,0.00
2023-12-24T02:35:40.114Z,-0.10
2023-12-24T02:38:08.525Z,-0.10
2023-12-24T02:40:36.075Z,0.00
2023-12-24T02:43:03.957Z,-0.10
2023-12-24T02:45:31.677Z,-0.10
2023-12-24T02:47:59.587Z,-0.10
2023-12-24T02:50:27.388Z,-0.10
2023-12-24T02:52:55.278Z,-0.10
2023-12-24T02:55:23.007Z,-0.10
2023-12-24T02:57:50.671Z,-0.10
2023-12-24T03:00:18.550Z,-0.10
2023-12-24T03:02:46.507Z,-0.10
2023-12-24T03:05:14.146Z,-0.10
2023-12-24T03:07:41.782Z,-0.10
2023-12-24T03:10:09.457Z,-0.10
2023-12-24T03:12:36.998Z,-0.10
2023-12-24T03:15:05.029Z,-0.10
2023-12-24T03:17:32.889Z,-0.10
2023-12-24T03:20:00.870Z,-0.10
2023-12-24T03:22:28.483Z,-0.10
2023-12-24T03:24:56.090Z,-0.10
2023-12-24T03:27:25.161Z,-0.10
2023-12-24T03:29:54.335Z,-0.10
2023-12-24T03:32:21.946Z,-0.10
2023-12-24T03:34:49.507Z,-0.10
2023-12-24T03:37:17.143Z,-0.10
2023-12-24T03:39:44.708Z,-0.10
2023-12-24T03:42:12.356Z,-0.10
2023-12-24T03:44:40.088Z,-0.10
2023-12-24T03:47:07.897Z,-0.10
2023-12-24T03:49:35.410Z,-0.10
2023-12-24T03:52:02.972Z,-0.10
2023-12-24T03:54:30.528Z,-0.10
2023-12-24T03:56:58.061Z,-0.10
2023-12-24T03:59:25.784Z,-0.10
2023-12-24T04:01:53.404Z,-0.10
2023-12-24T04:04:21.016Z,-0.10
2023-12-24T04:06:48.649Z,-0.10
2023-12-24T04:09:16.244Z,-0.10
2023-12-24T04:11:44.320Z,-0.10
2023-12-24T04:14:12.036Z,-0.10
2023-12-24T04:16:39.712Z,-0.10
2023-12-24T04:19:07.405Z,-0.10
2023-12-24T04:21:35.077Z,-0.10
2023-12-24T04:24:02.625Z,-0.10
2023-12-24T04:26:30.285Z,-0.10
2023-12-24T04:28:57.915Z,-0.10
2023-12-24T04:31:25.527Z,-0.10
2023-12-24T04:33:53.313Z,-0.10
2023-12-24T04:36:21.237Z,-0.10
2023-12-24T04:38:49.242Z,-0.10
2023-12-24T04:41:19.715Z,-0.10
2023-12-24T04:43:47.480Z,-0.10
2023-12-24T04:46:15.105Z,-0.10
2023-12-24T04:48:42.726Z,-0.10
2023-12-24T04:51:12.695Z,-0.10
2023-12-24T04:53:40.326Z,-0.10
2023-12-24T04:56:08.076Z,-0.10
2023-12-24T04:58:35.609Z,-0.10
2023-12-24T05:01:06.538Z,-0.10
2023-12-24T05:03:35.633Z,-0.10
2023-12-24T05:06:03.470Z,-0.10
2023-12-24T05:08:31.119Z,-0.10
2023-12-24T05:10:58.685Z,-0.10
2023-12-24T05:13:26.308Z,-0.10
2023-12-24T05:15:53.860Z,-0.10
2023-12-24T05:18:22.050Z,-0.10
2023-12-24T05:20:49.650Z,-0.10
2023-12-24T05:23:20.805Z,-0.10
2023-12-24T05:25:48.971Z,-0.10
2023-12-24T05:28:19.523Z,-0.10
2023-12-24T05:30:47.267Z,-0.10
2023-12-24T05:33:15.531Z,-0.10
2023-12-24T05:35:43.215Z,-0.10
2023-12-24T05:38:10.944Z,-0.10
2023-12-24T05:40:38.633Z,-0.10
2023-12-24T05:43:06.300Z,-0.10
2023-12-24T05:45:35.106Z,-0.10
2023-12-24T05:48:02.856Z,-0.10
2023-12-24T05:50:31.340Z,-0.10
2023-12-24T05:52:58.939Z,-0.10
2023-12-24T05:55:26.718Z,0.00
2023-12-24T05:57:54.249Z,0.00
2023-12-24T06:00:22.076Z,0.00
2023-12-24T06:02:51.462Z,-0.10
2023-12-24T06:05:20.231Z,0.00
2023-12-24T06:07:48.011Z,0.00
2023-12-24T06:10:16.109Z,0.00
2023-12-24T06:12:44.469Z,0.00
2023-12-24T06:15:12.094Z,0.10
2023-12-24T06:17:39.933Z,0.10
2023-12-24T06:20:09.461Z,0.10
2023-12-24T06:22:37.739Z,0.10
2023-12-24T06:25:06.292Z,0.10
2023-12-24T06:27:35.826Z,0.10
2023-12-24T06:30:05.359Z,0.10
2023-12-24T06:32:33.001Z,0.10
2023-12-24T06:35:00.674Z,0.20
2023-12-24T06:37:28.886Z,0.10
2023-12-24T06:39:56.418Z,0.10
2023-12-24T06:42:23.995Z,0.10
2023-12-24T06:44:52.997Z,0.10
2023-12-24T06:47:21.795Z,0.10
2023-12-24T06:49:49.604Z,0.10
2023-12-24T06:52:17.197Z,0.10
2023-12-24T06:54:44.691Z,0.10
2023-12-24T06:57:12.290Z,0.00
2023-12-24T06:59:40.032Z,0.10
2023-12-24T07:02:08.717Z,0.00
2023-12-24T07:04:36.575Z,0.00
2023-12-24T07:07:04.304Z,0.00
2023-12-24T07:09:31.856Z,0.00
2023-12-24T07:11:59.558Z,0.10
2023-12-24T07:14:27.849Z,0.10
2023-12-24T07:16:55.501Z,0.10
2023-12-24T07:19:23.173Z,0.10
2023-12-24T07:21:50.880Z,0.20
2023-12-24T07:24:18.426Z,0.20
2023-12-24T07:26:46.099Z,0.10
2023-12-24T07:29:14.060Z,0.10
2023-12-24T07:31:41.705Z,0.10
2023-12-24T07:34:09.402Z,0.20
2023-12-24T07:36:37.036Z,0.10
2023-12-24T07:39:04.913Z,0.10
2023-12-24T07:41:32.926Z,0.10
2023-12-24T07:44:00.525Z,0.10
2023-12-24T07:46:28.192Z,0.10
2023-12-24T07:48:55.901Z,0.10
2023-12-24T07:51:23.446Z,0.20
2023-12-24T07:53:51.012Z,0.20
2023-12-24T07:56:18.559Z,0.30
2023-12-24T07:58:46.401Z,0.30
2023-12-24T08:01:14.033Z,0.40
2023-12-24T08:03:41.670Z,0.30
2023-12-24T08:06:09.439Z,0.30
2023-12-24T08:08:37.351Z,0.30
2023-12-24T08:11:10.235Z,0.20
2023-12-24T08:13:44.267Z,0.30
2023-12-24T08:16:11.901Z,0.40
2023-12-24T08:18:39.744Z,0.40
2023-12-24T08:21:11.271Z,0.50
2023-12-24T08:23:41.980Z,0.50
2023-12-24T08:26:09.771Z,0.50
2023-12-24T08:28:37.839Z,0.50
2023-12-24T08:31:05.992Z,0.50
2023-12-24T08:33:33.658Z,0.50
2023-12-24T08:36:01.230Z,0.40
2023-12-24T08:38:28.815Z,0.40
2023-12-24T08:40:56.416Z,0.40
2023-12-24T08:43:23.937Z,0.40
2023-12-24T08:45:51.908Z,0.40
2023-12-24T08:48:20.588Z,0.50
2023-12-24T08:50:48.357Z,0.50
2023-12-24T08:53:15.955Z,0.40
2023-12-24T08:55:43.572Z,0.50
2023-12-24T08:58:11.311Z,0.50
2023-12-24T09:00:38.901Z,0.60
2023-12-24T09:03:06.712Z,0.60
2023-12-24T09:05:34.402Z,0.60
2023-12-24T09:08:02.158Z,0.70
2023-12-24T09:10:29.722Z,0.60
2023-12-24T09:12:57.290Z,0.60
2023-12-24T09:15:24.852Z,0.60
2023-12-24T09:17:52.532Z,0.50
2023-12-24T09:20:20.171Z,0.50
2023-12-24T09:22:47.774Z,0.50
2023-12-24T09:25:15.292Z,0.70
2023-12-24T09:27:42.897Z,0.70
2023-12-24T09:30:11.404Z,0.70
2023-12-24T09:32:39.558Z,0.60
2023-12-24T09:35:07.856Z,0.60
2023-12-24T09:37:35.411Z,0.60
2023-12-24T09:40:02.949Z,0.60
2023-12-24T09:42:30.480Z,0.60
2023-12-24T09:44:58.053Z,0.70
2023-12-24T09:47:25.753Z,0.60
2023-12-24T09:49:53.463Z,0.70
2023-12-24T09:52:22.748Z,0.70
2023-12-24T09:54:51.500Z,0.70
2023-12-24T09:57:19.079Z,0.80
2023-12-24T09:59:46.694Z,0.80
2023-12-24T10:02:14.425Z,0.80
2023-12-24T10:04:41.997Z,1.00
2023-12-24T10:07:10.763Z,1.00
2023-12-24T10:09:51.327Z,1.10
2023-12-24T10:12:20.502Z,1.20
2023-12-24T10:15:00.021Z,1.20
2023-12-24T10:17:37.899Z,1.20
2023-12-24T10:20:09.765Z,1.10
2023-12-24T10:22:37.648Z,1.10
2023-12-24T10:25:08.012Z,1.10
2023-12-24T10:27:36.376Z,1.10
2023-12-24T10:30:15.519Z,1.20
2023-12-24T10:32:45.304Z,1.20
2023-12-24T10:35:22.372Z,1.30
2023-12-24T10:37:50.182Z,1.50
2023-12-24T10:40:18.048Z,1.50
2023-12-24T10:42:46.269Z,1.30
2023-12-24T10:45:14.304Z,1.20
2023-12-24T10:47:42.084Z,1.30
2023-12-24T10:50:10.407Z,1.20
2023-12-24T10:52:38.150Z,1.30
2023-12-24T10:55:06.461Z,1.40
2023-12-24T10:57:43.680Z,1.40
2023-12-24T11:00:16.368Z,1.40
2023-12-24T11:02:50.990Z,1.50
2023-12-24T11:05:45.621Z,1.70
2023-12-24T11:08:33.224Z,1.70
2023-12-24T11:11:09.010Z,1.70
2023-12-24T11:13:38.981Z,1.90
2023-12-24T11:16:10.881Z,2.00
2023-12-24T11:18:48.246Z,2.10
2023-12-24T11:21:19.533Z,2.10
2023-12-24T11:24:13.433Z,2.00
2023-12-24T11:26:52.581Z,2.00
2023-12-24T11:29:49.375Z,2.10
2023-12-24T11:32:26.958Z,2.20
2023-12-24T11:35:00.535Z,2.10
2023-12-24T11:37:40.010Z,2.20
2023-12-24T11:40:20.090Z,2.10
2023-12-24T11:42:52.117Z,2.10
2023-12-24T11:45:31.592Z,2.10
2023-12-24T11:48:00.638Z,2.20
2023-12-24T11:50:29.725Z,2.10
2023-12-24T11:52:57.966Z,2.00
2023-12-24T11:55:25.632Z,2.00
2023-12-24T11:57:53.272Z,1.90
2023-12-24T12:00:28.697Z,1.90
2023-12-24T12:03:02.112Z,2.00
2023-12-24T12:05:31.680Z,2.00
2023-12-24T12:07:59.573Z,2.00
2023-12-24T12:10:27.226Z,2.10
2023-12-24T12:12:55.140Z,2.20
2023-12-24T12:15:25.231Z,2.40
2023-12-24T12:17:53.482Z,2.40
2023-12-24T12:20:21.469Z,2.50
2023-12-24T12:22:52.324Z,2.50
2023-12-24T12:25:20.252Z,2.50
2023-12-24T12:27:49.042Z,2.60
2023-12-24T12:30:17.714Z,2.70
2023-12-24T12:32:45.597Z,2.90
2023-12-24T12:35:13.540Z,3.00
2023-12-24T12:37:41.196Z,3.10
2023-12-24T12:40:10.064Z,3.20
2023-12-24T12:42:43.206Z,3.30
2023-12-24T12:45:12.738Z,3.40
2023-12-24T12:47:40.991Z,3.60
2023-12-24T12:50:09.741Z,3.70
2023-12-24T12:52:37.436Z,3.80
2023-12-24T12:55:10.043Z,3.90
2023-12-24T12:57:38.278Z,4.00
2023-12-24T13:00:21.804Z,4.00
2023-12-24T13:02:50.126Z,4.10
2023-12-24T13:05:29.185Z,4.20
2023-12-24T13:07:59.215Z,4.40
2023-12-24T13:10:35.670Z,4.40
2023-12-24T13:13:22.074Z,4.40
2023-12-24T13:16:07.309Z,4.50
2023-12-24T13:18:36.171Z,4.60
2023-12-24T13:21:06.285Z,4.60
2023-12-24T13:23:34.057Z,4.60
2023-12-24T13:26:05.429Z,4.80
2023-12-24T13:28:35.048Z,4.80
2023-12-24T13:31:03.746Z,4.70
2023-12-24T13:33:31.520Z,4.80
2023-12-24T13:35:59.224Z,5.00
2023-12-24T13:38:28.673Z,5.20
2023-12-24T13:40:57.256Z,5.30
2023-12-24T13:43:24.782Z,5.40
2023-12-24T13:45:52.375Z,5.40
2023-12-24T13:48:20.166Z,5.50
2023-12-24T13:50:48.068Z,5.50
2023-12-24T13:53:24.775Z,5.40
2023-12-24T13:56:00.997Z,5.40
2023-12-24T13:58:29.390Z,5.40
2023-12-24T14:00:58.531Z,5.40
2023-12-24T14:03:28.893Z,5.60
2023-12-24T14:05:58.206Z,5.80
2023-12-24T14:08:27.647Z,6.00
2023-12-24T14:10:55.417Z,6.00
2023-12-24T14:13:23.230Z,6.10
2023-12-24T14:15:51.213Z,6.20
2023-12-24T14:18:19.159Z,6.30
2023-12-24T14:20:47.028Z,6.40
2023-12-24T14:23:14.753Z,6.50
2023-12-24T14:25:42.387Z,6.50
2023-12-24T14:28:10.049Z,6.60
2023-12-24T14:30:37.718Z,6.70
2023-12-24T14:33:05.796Z,6.60
2023-12-24T14:35:33.648Z,6.70
2023-12-24T14:38:01.197Z,6.90
2023-12-24T14:40:29.148Z,6.90
2023-12-24T14:42:56.986Z,6.90
2023-12-24T14:45:24.823Z,7.00
2023-12-24T14:47:52.971Z,7.10
2023-12-24T14:50:20.769Z,7.10
2023-12-24T14:52:48.302Z,7.20
2023-12-24T14:55:15.984Z,7.20
2023-12-24T14:57:43.547Z,7.20
2023-12-24T15:00:13.369Z,7.30
2023-12-24T15:02:41.139Z,7.30
2023-12-24T15:05:09.018Z,7.40
2023-12-24T15:07:39.903Z,7.40
2023-12-24T15:10:08.793Z,7.50
2023-12-24T15:12:36.417Z,7.50
2023-12-24T15:15:04.285Z,7.60
2023-12-24T15:17:34.030Z,7.60
2023-12-24T15:20:02.141Z,7.70
2023-12-24T15:22:29.772Z,7.70
2023-12-24T15:24:57.675Z,7.60
2023-12-24T15:27:25.347Z,7.60
2023-12-24T15:29:53.518Z,7.70
2023-12-24T15:32:21.089Z,7.70
2023-12-24T15:34:48.744Z,7.70
2023-12-24T15:37:16.345Z,7.70
2023-12-24T15:39:44.789Z,7.70
2023-12-24T15:42:12.514Z,7.80
2023-12-24T15:44:40.112Z,7.90
2023-12-24T15:47:07.709Z,7.80
2023-12-24T15:49:35.447Z,7.80
2023-12-24T15:52:04.016Z,7.80
2023-12-24T15:54:31.925Z,7.90
2023-12-24T15:56:59.967Z,8.00
2023-12-24T15:59:28.057Z,8.00
2023-12-24T16:01:55.592Z,7.90
2023-12-24T16:04:23.171Z,8.00
2023-12-24T16:06:50.734Z,8.10
2023-12-24T16:09:18.350Z,8.10
2023-12-24T16:11:46.073Z,8.10
2023-12-24T16:14:14.036Z,8.10
2023-12-24T16:16:41.633Z,8.20
2023-12-24T16:19:09.928Z,8.30
2023-12-24T16:21:43.873Z,8.30
2023-12-24T16:24:11.585Z,8.20
2023-12-24T16:26:39.163Z,8.30
2023-12-24T16:29:06.774Z,8.40
2023-12-24T16:31:34.322Z,8.40
2023-12-24T16:34:02.068Z,8.40
2023-12-24T16:36:29.701Z,8.40
2023-12-24T16:38:57.506Z,8.50
2023-12-24T16:41:25.189Z,8.50
2023-12-24T16:43:52.820Z,8.60
2023-12-24T16:46:21.639Z,8.70
2023-12-24T16:48:49.548Z,8.80
2023-12-24T16:51:20.680Z,8.80
2023-12-24T16:53:49.529Z,8.80
2023-12-24T16:56:17.340Z,8.90
2023-12-24T16:58:45.438Z,8.90
2023-12-24T17:01:13.113Z,9.00
2023-12-24T17:03:40.775Z,9.00
2023-12-24T17:06:09.284Z,9.00
2023-12-24T17:08:38.166Z,9.00
2023-12-24T17:11:09.888Z,9.10
2023-12-24T17:13:38.010Z,9.20
2023-12-24T17:16:05.958Z,9.10
2023-12-24T17:18:34.033Z,9.10
2023-12-24T17:21:01.896Z,9.00
2023-12-24T17:23:29.507Z,9.00
2023-12-24T17:25:57.779Z,9.00
2023-12-24T17:28:25.329Z,8.80
2023-12-24T17:30:53.015Z,8.80
2023-12-24T17:33:20.739Z,8.80
2023-12-24T17:38:16.749Z,8.70
2023-12-24T17:40:44.351Z,8.60
2023-12-24T17:43:11.987Z,8.60
2023-12-24T17:45:41.357Z,8.60
2023-12-24T17:48:16.876Z,8.50
2023-12-24T17:50:47.807Z,8.50
2023-12-24T17:53:15.620Z,8.50
2023-12-24T17:55:43.242Z,8.50
2023-12-24T17:58:10.797Z,8.50
2023-12-24T18:00:39.082Z,8.50
2023-12-24T18:03:07.077Z,8.40
2023-12-24T18:05:35.526Z,8.30
2023-12-24T18:08:03.286Z,8.30
2023-12-24T18:10:30.936Z,8.10
2023-12-24T18:12:58.556Z,8.10
2023-12-24T18:15:26.780Z,8.10
2023-12-24T18:17:54.894Z,8.10
2023-12-24T18:20:22.577Z,8.10
2023-12-24T18:22:50.480Z,8.10
2023-12-24T18:25:18.208Z,8.10
2023-12-24T18:27:47.149Z,8.10
2023-12-24T18:30:15.445Z,8.00
2023-12-24T18:32:43.254Z,7.90
2023-12-24T18:35:11.265Z,7.80
2023-12-24T18:37:38.791Z,7.80
2023-12-24T18:40:07.415Z,7.80
2023-12-24T18:42:35.037Z,7.80
2023-12-24T18:45:02.628Z,7.80
2023-12-24T18:47:30.253Z,7.80
2023-12-24T18:49:57.876Z,7.80
2023-12-24T18:52:25.623Z,7.90
2023-12-24T18:54:53.196Z,7.90
2023-12-24T18:57:20.777Z,7.90
2023-12-24T18:59:48.419Z,7.90
2023-12-24T19:02:16.087Z,7.90
2023-12-24T19:04:45.289Z,7.90
2023-12-24T19:07:13.071Z,8.00
2023-12-24T19:09:40.670Z,8.00
2023-12-24T19:12:08.429Z,7.90
2023-12-24T19:14:36.070Z,7.90
2023-12-24T19:17:03.796Z,7.90
2023-12-24T19:19:31.471Z,7.90
2023-12-24T19:21:59.263Z,8.00
2023-12-24T19:24:27.553Z,8.00
2023-12-24T19:26:55.949Z,7.90
2023-12-24T19:29:23.749Z,8.00
2023-12-24T19:31:51.961Z,8.00
2023-12-24T19:34:19.506Z,8.00
2023-12-24T19:36:47.632Z,8.10
2023-12-24T19:39:15.222Z,8.00
2023-12-24T19:41:42.931Z,8.10
2023-12-24T19:44:10.931Z,8.10
2023-12-24T19:46:38.508Z,8.10
2023-12-24T19:49:06.224Z,8.10
2023-12-24T19:51:34.028Z,8.10
2023-12-24T19:54:01.630Z,8.20
2023-12-24T19:56:29.278Z,8.10
2023-12-24T19:58:56.916Z,8.00
2023-12-24T20:01:31.707Z,7.80
2023-12-24T20:04:09.387Z,7.70
2023-12-24T20:06:38.745Z,7.70
2023-12-24T20:09:06.392Z,7.60
2023-12-24T20:11:36.291Z,7.60
2023-12-24T20:14:03.969Z,7.60
2023-12-24T20:16:32.885Z,7.50
2023-12-24T20:19:00.767Z,7.50
2023-12-24T20:21:28.396Z,7.50
2023-12-24T20:23:56.114Z,7.50
2023-12-24T20:26:23.776Z,7.40
2023-12-24T20:28:51.813Z,7.40
2023-12-24T20:31:19.566Z,7.40
2023-12-24T20:33:49.566Z,7.40
2023-12-24T20:36:17.699Z,7.40
2023-12-24T20:38:45.410Z,7.40
2023-12-24T20:41:13.156Z,7.40
2023-12-24T20:43:40.765Z,7.40
2023-12-24T20:46:08.411Z,7.40
2023-12-24T20:48:37.860Z,7.40
2023-12-24T20:51:06.669Z,7.40
2023-12-24T20:53:34.368Z,7.50
2023-12-24T20:56:02.111Z,7.40
2023-12-24T20:58:29.846Z,7.50
2023-12-24T21:00:57.546Z,7.50
2023-12-24T21:03:26.028Z,7.50
2023-12-24T21:05:54.691Z,7.60
2023-12-24T21:08:24.236Z,7.60
2023-12-24T21:10:51.900Z,7.60
2023-12-24T21:13:19.412Z,7.60
2023-12-24T21:15:46.946Z,7.60
2023-12-24T21:18:14.719Z,7.70
2023-12-24T21:20:42.621Z,7.60
2023-12-24T21:23:10.174Z,7.70
2023-12-24T21:25:37.768Z,7.70
2023-12-24T21:28:05.468Z,7.70
2023-12-24T21:30:33.039Z,7.70
2023-12-24T21:33:00.769Z,7.70
2023-12-24T21:35:28.541Z,7.70
2023-12-24T21:38:00.291Z,7.80
2023-12-24T21:40:28.502Z,7.80
2023-12-24T21:42:56.289Z,7.80
2023-12-24T21:45:24.237Z,7.80
2023-12-24T21:47:52.230Z,7.80
2023-12-24T21:50:20.034Z,7.90
2023-12-24T21:52:48.086Z,7.90
2023-12-24T21:55:15.784Z,7.90
2023-12-24T21:57:43.375Z,7.90
2023-12-24T22:00:11.487Z,7.90
2023-12-24T22:02:39.114Z,8.00
2023-12-24T22:05:07.048Z,8.10
2023-12-24T22:07:34.568Z,8.20
2023-12-24T22:10:02.238Z,8.20
2023-12-24T22:12:29.958Z,8.30
2023-12-24T22:14:57.541Z,8.50
2023-12-24T22:17:25.276Z,8.70
2023-12-24T22:19:53.278Z,8.90
2023-12-24T22:22:20.879Z,9.00
2023-12-24T22:24:48.529Z,9.10
2023-12-24T22:27:16.240Z,9.20
2023-12-24T22:29:43.895Z,9.30
2023-12-24T22:32:11.412Z,9.40
2023-12-24T22:34:39.102Z,9.50
2023-12-24T22:37:06.793Z,9.50
2023-12-24T22:39:34.360Z,9.60
2023-12-24T22:42:01.950Z,9.60
2023-12-24T22:44:29.880Z,9.70
2023-12-24T22:46:57.477Z,9.70
2023-12-24T22:49:25.364Z,9.80
2023-12-24T22:51:53.018Z,9.80
2023-12-24T22:54:20.602Z,9.80
2023-12-24T22:56:48.403Z,9.80
2023-12-24T22:59:16.165Z,9.90
2023-12-24T23:01:47.441Z,9.90
2023-12-24T23:04:15.028Z,10.00
2023-12-24T23:06:42.650Z,10.00
2023-12-24T23:09:10.336Z,10.10
2023-12-24T23:11:37.934Z,10.20
2023-12-24T23:14:05.594Z,10.20
2023-12-24T23:16:33.160Z,10.20
2023-12-24T23:19:00.943Z,10.30
2023-12-24T23:21:28.628Z,10.40
2023-12-24T23:23:56.279Z,10.40
2023-12-24T23:26:23.942Z,10.50
2023-12-24T23:28:51.521Z,10.50
2023-12-24T23:31:19.143Z,10.60
2023-12-24T23:33:46.764Z,10.60
2023-12-24T23:36:14.419Z,10.60
2023-12-24T23:38:42.119Z,10.70
2023-12-24T23:41:09.827Z,10.70
2023-12-24T23:43:40.336Z,10.80
2023-12-24T23:46:10.272Z,10.70
2023-12-24T23:48:38.593Z,10.80
2023-12-24T23:56:12.628Z,10.80
